All
Cunderdin Airport (Cunderdin, Western Australia) YCUN Weather
|
Cunderdin, Western Australia (YCUN)
Clear skies
Light winds |
|
60 °F |
YCUN Terminal Area Forecast
| Date | Time (AWST) | Flight Rules | Wind Dir. | Speed | Type | Height AGL (ft) | Visibility | Remarks | ||||||
|---|---|---|---|---|---|---|---|---|---|---|---|---|---|---|
| 08-May | 01:00AM | VFR | 80° | 14 kt | Clouds and Visibility are OK | >= 6 miles | ||||||||
| 08-May | 12:00AM | VFR | 80° | 14 kt | Clouds and Visibility are OK | >= 6 miles | ||||||||
| 07-May | 11:00PM | VFR | 80° | 14 kt | Clouds and Visibility are OK | >= 6 miles | ||||||||
| 07-May | 10:00PM | VFR | 80° | 14 kt | Clouds and Visibility are OK | >= 6 miles | ||||||||
| 07-May | 09:00PM | VFR | 80° | 14 kt | Clouds and Visibility are OK | >= 6 miles | ||||||||
| 07-May | 08:00PM | VFR | 80° | 14 kt | Clouds and Visibility are OK | >= 6 miles | ||||||||
| 07-May | 07:00PM | VFR | 80° | 14 kt | Clouds and Visibility are OK | >= 6 miles | ||||||||
Recent YCUN METAR history
| Date | Time (AWST) | Flight Rules | Wind Dir. | Speed | Type | Height AGL (ft) | Visibility | Temp (°C) | Temp (°F) | Dew Point (°C) | Dew Point (°F) | Rel. Humid. | Pressure | Density Altitude | Remarks |
|---|---|---|---|---|---|---|---|---|---|---|---|---|---|---|---|
| 07-May | 07:00PM | VFR | 110° | 7 kt | 10000 meters | 16° | 60° | 5° | 41° | 48% | 1029 mb | 353 ft | |||
| 07-May | 06:00PM | VFR | 110° | 9 kt | 10000 meters | 18° | 64° | 6° | 42° | 45% | 1028 mb | 622 ft | |||
| 07-May | 05:00PM | VFR | 90° | 12 kt | 10000 meters | 20° | 68° | 6° | 42° | 40% | 1028 mb | 862 ft | |||
| 07-May | 04:00PM | VFR | 100° | 13 kt | 10000 meters | 21° | 69° | 6° | 42° | 38% | 1028 mb | 982 ft | |||
| 07-May | 03:00PM | VFR | 110° | 11 kt | 10000 meters | 21° | 69° | 6° | 42° | 38% | 1028 mb | 982 ft | |||
| 07-May | 02:00PM | VFR | 100° | 12 kt | 10000 meters | 21° | 69° | 6° | 42° | 38% | 1029 mb | 953 ft | |||
| 07-May | 01:00PM | VFR | 90° | 13 kt | 10000 meters | 21° | 69° | 8° | 46° | 43% | 1029 mb | 953 ft | |||
| 07-May | 12:00PM | VFR | 70° | 13 kt | 10000 meters | 20° | 68° | 8° | 46° | 46% | 1030 mb | 803 ft | |||
| 07-May | 11:00AM | VFR | 60° | 17 kt | 10000 meters | 19° | 66° | 7° | 44° | 46% | 1031 mb | 654 ft | |||
| 07-May | 10:00AM | VFR | 70° | 15 kt | 10000 meters | 17° | 62° | 8° | 46° | 55% | 1032 mb | 384 ft | |||
| 07-May | 09:00AM | VFR | 90° | 12 kt | 10000 meters | 14° | 57° | 8° | 46° | 67% | 1033 mb | -5 ft | |||
| 07-May | 08:00AM | VFR | 100° | 9 kt | 10000 meters | 11° | 51° | 8° | 46° | 82% | 1032 mb | -336 ft | |||
| 07-May | 07:00AM | VFR | 60° | 5 kt | 10000 meters | 7° | 44° | 5° | 41° | 87% | 1032 mb | -816 ft | |||
| 07-May | 06:00AM | VFR | 60° | 5 kt | 10000 meters | 6° | 42° | 5° | 41° | 93% | 1031 mb | -906 ft | |||
| 07-May | 05:00AM | VFR | 80° | 5 kt | 10000 meters | 7° | 44° | 5° | 41° | 87% | 1031 mb | -786 ft | |||
| 07-May | 04:00AM | VFR | 90° | 6 kt | 10000 meters | 8° | 46° | 6° | 42° | 87% | 1031 mb | -666 ft | |||
| 07-May | 03:00AM | VFR | 90° | 6 kt | 10000 meters | 9° | 48° | 6° | 42° | 81% | 1030 mb | -517 ft | |||
| 07-May | 02:00AM | VFR | 100° | 6 kt | 10000 meters | 10° | 50° | 6° | 42° | 76% | 1031 mb | -426 ft | |||
| 07-May | 01:00AM | VFR | 90° | 5 kt | 10000 meters | 10° | 50° | 6° | 42° | 76% | 1031 mb | -426 ft | |||
| 07-May | 12:00AM | VFR | 110° | 6 kt | 10000 meters | 11° | 51° | 7° | 44° | 76% | 1031 mb | -306 ft | |||
| 06-May | 11:00PM | VFR | 110° | 7 kt | 10000 meters | 12° | 53° | 7° | 44° | 71% | 1031 mb | -186 ft | |||
| 06-May | 10:00PM | VFR | 100° | 10 kt | 10000 meters | 14° | 57° | 7° | 44° | 63% | 1030 mb | 83 ft | |||
| 06-May | 09:00PM | VFR | 110° | 10 kt | 10000 meters | 15° | 59° | 7° | 44° | 59% | 1030 mb | 203 ft | |||
| 06-May | 08:00PM | VFR | 120° | 9 kt | 10000 meters | 15° | 59° | 7° | 44° | 59% | 1030 mb | 203 ft |
Login
| Your browser is unsupported. upgrade your browser |
